Time;durP1;ratioP1;P1;durP2;ratioP2;P2;SDS_P1;SDS_P2;PMS_P1;PMS_P2;Temp;Humidity;BMP_temperature;BMP_pressure;BME280_temperature;BME280_humidity;BME280_pressure;Samples;Min_cycle;Max_cycle;Signal;HPM_P1;HPM_P2
2021/01/21 01:05:27;;;;;;;4.27;2.97;;;8.00;98.20;;;;;;5307471;22;20057;-59
2021/01/21 01:07:53;;;;;;;6.60;1.98;;;8.20;97.60;;;;;;5015556;28;20034;-59
2021/01/21 01:10:18;;;;;;;3.70;2.00;;;8.20;97.50;;;;;;5015027;28;20041;-60
2021/01/21 01:12:44;;;;;;;2.40;1.60;;;8.20;97.40;;;;;;5013613;28;20387;-60
2021/01/21 01:15:10;;;;;;;3.70;1.85;;;8.30;97.00;;;;;;5013871;28;20037;-63
2021/01/21 01:17:36;;;;;;;4.10;1.73;;;8.30;96.50;;;;;;5014697;28;20033;-61
2021/01/21 01:20:03;;;;;;;3.17;1.60;;;8.40;96.30;;;;;;5016223;28;20037;-61
2021/01/21 01:22:29;;;;;;;2.50;1.70;;;8.60;95.70;;;;;;5014603;28;20468;-63
2021/01/21 01:24:54;;;;;;;3.03;1.77;;;8.60;96.20;;;;;;5015332;28;20030;-61
2021/01/21 01:27:20;;;;;;;4.78;1.77;;;8.60;95.20;;;;;;5013363;28;20430;-60
2021/01/21 01:29:46;;;;;;;6.93;1.80;;;8.70;94.60;;;;;;5015323;28;20041;-59
2021/01/21 01:32:11;;;;;;;2.40;1.45;;;8.80;94.60;;;;;;5012859;28;20522;-60
2021/01/21 01:34:37;;;;;;;8.02;2.03;;;8.90;94.00;;;;;;5013360;28;20026;-60
2021/01/21 01:37:04;;;;;;;5.85;2.17;;;8.80;95.30;;;;;;5014513;28;20034;-60
2021/01/21 01:39:30;;;;;;;7.85;2.33;;;8.70;96.20;;;;;;5012448;28;20442;-61
2021/01/21 01:41:56;;;;;;;7.10;2.63;;;8.40;97.40;;;;;;5013998;28;20018;-61
2021/01/21 01:44:22;;;;;;;3.22;2.25;;;8.30;97.90;;;;;;5013922;28;20034;-59
2021/01/21 01:46:48;;;;;;;5.22;2.78;;;8.30;98.40;;;;;;5013024;28;20036;-59
2021/01/21 01:49:14;;;;;;;9.15;3.10;;;8.20;98.70;;;;;;5012599;28;20038;-59
2021/01/21 01:51:43;;;;;;;6.28;2.70;;;8.10;99.00;;;;;;5012931;28;20060;-59
2021/01/21 01:54:09;;;;;;;5.70;2.38;;;8.20;98.80;;;;;;5012074;28;20460;-62
2021/01/21 01:56:35;;;;;;;4.22;2.35;;;8.20;97.60;;;;;;5012784;28;20116;-59
2021/01/21 01:59:01;;;;;;;6.30;2.67;;;8.30;98.00;;;;;;5012924;28;20057;-59
2021/01/21 02:01:28;;;;;;;8.80;2.53;;;8.10;98.40;;;;;;5013348;28;20049;-60
2021/01/21 02:03:54;;;;;;;4.75;2.70;;;8.10;98.60;;;;;;5014498;28;20028;-60
2021/01/21 02:06:20;;;;;;;5.10;2.50;;;8.10;98.70;;;;;;5013282;28;20132;-60
2021/01/21 02:08:46;;;;;;;3.97;2.50;;;8.00;98.90;;;;;;5013528;28;20464;-61
2021/01/21 02:11:47;;;;;;;3.78;2.10;;;8.10;99.00;;;;;;5013788;28;20076;-59
2021/01/21 02:14:35;;;;;;;3.25;2.50;;;8.10;98.90;;;;;;5011604;28;20043;-59
2021/01/21 02:17:14;;;;;;;8.05;2.42;;;8.10;98.80;;;;;;4993623;28;20564;-59
2021/01/21 02:20:07;;;;;;;4.65;2.25;;;8.20;98.40;;;;;;5012352;28;20072;-59
2021/01/21 02:22:48;;;;;;;9.35;3.00;;;8.20;97.50;;;;;;5011715;28;20028;-59
2021/01/21 02:25:18;;;;;;;5.10;1.97;;;8.40;96.90;;;;;;5012960;28;20022;-59
2021/01/21 02:28:00;;;;;;;7.10;1.52;;;8.60;94.90;;;;;;5012541;28;20061;-60
2021/01/21 02:30:49;;;;;;;2.25;1.00;;;8.80;94.10;;;;;;5013504;28;20073;-60
2021/01/21 02:33:30;;;;;;;1.67;0.82;;;9.20;91.10;;;;;;5012326;28;20029;-58
2021/01/21 02:36:01;;;;;;;3.38;0.77;;;9.50;90.20;;;;;;5012636;28;20030;-61
2021/01/21 02:38:30;;;;;;;6.15;1.45;;;9.80;86.20;;;;;;5013602;28;20034;-59
2021/01/21 02:40:56;;;;;;;3.88;0.70;;;9.90;83.10;;;;;;5012964;28;20055;-60
2021/01/21 02:43:22;;;;;;;1.05;0.55;;;10.10;80.60;;;;;;5013512;28;20030;-60
2021/01/21 02:45:47;;;;;;;2.72;0.75;;;10.20;79.30;;;;;;5013677;28;20233;-70
2021/01/21 02:48:13;;;;;;;1.35;0.70;;;10.30;77.40;;;;;;5013849;28;20464;-60
2021/01/21 02:50:40;;;;;;;1.27;0.63;;;10.30;77.20;;;;;;5014658;28;20044;-67
2021/01/21 02:53:06;;;;;;;3.00;0.77;;;10.30;76.10;;;;;;5014067;28;20049;-59
2021/01/21 02:55:44;;;;;;;3.88;0.80;;;10.30;75.40;;;;;;5011955;28;20245;-60
2021/01/21 02:58:41;;;;;;;1.13;0.68;;;10.50;73.70;;;;;;5013954;28;20080;-58
2021/01/21 03:01:08;;;;;;;2.15;0.70;;;10.50;72.80;;;;;;5013450;28;20483;-62
2021/01/21 03:03:36;;;;;;;3.97;1.00;;;10.40;73.60;;;;;;4995171;28;20072;-62
2021/01/21 03:06:05;;;;;;;1.50;0.60;;;10.50;73.30;;;;;;5011945;28;20527;-60
2021/01/21 03:08:32;;;;;;;2.65;0.70;;;10.50;72.90;;;;;;5012345;28;20068;-64
2021/01/21 03:11:11;;;;;;;1.17;0.50;;;10.50;73.00;;;;;;5014017;28;20068;-62
2021/01/21 03:13:41;;;;;;;1.48;0.60;;;10.50;72.60;;;;;;5013562;28;20018;-59
2021/01/21 03:16:07;;;;;;;4.75;0.60;;;10.50;72.90;;;;;;5013306;28;20072;-60
2021/01/21 03:18:32;;;;;;;0.98;0.70;;;10.50;72.80;;;;;;5014005;28;20225;-61
2021/01/21 03:20:58;;;;;;;1.35;0.85;;;10.50;72.50;;;;;;5017095;28;20058;-63
2021/01/21 03:23:24;;;;;;;3.90;0.98;;;10.50;73.30;;;;;;5016005;28;20022;-61
2021/01/21 03:25:49;;;;;;;2.60;1.20;;;10.50;72.80;;;;;;5016955;28;20502;-60
2021/01/21 03:28:15;;;;;;;0.85;0.70;;;10.50;72.90;;;;;;5015082;28;20479;-60
2021/01/21 03:30:41;;;;;;;2.13;0.73;;;10.50;72.20;;;;;;5017001;28;20034;-59
2021/01/21 03:33:07;;;;;;;4.78;0.80;;;10.40;72.80;;;;;;5016165;28;20022;-59
2021/01/21 03:35:32;;;;;;;2.05;0.73;;;10.50;72.70;;;;;;5014081;28;20021;-59
2021/01/21 03:37:58;;;;;;;2.65;0.63;;;10.50;72.00;;;;;;5015158;28;20037;-62
2021/01/21 03:40:24;;;;;;;5.63;1.08;;;10.40;72.90;;;;;;5015793;28;20026;-61
2021/01/21 03:42:49;;;;;;;1.63;0.60;;;10.50;70.40;;;;;;5016245;28;20025;-59
2021/01/21 03:45:15;;;;;;;4.63;1.05;;;10.40;70.70;;;;;;5016045;28;20026;-66
2021/01/21 03:47:41;;;;;;;3.38;0.75;;;10.40;70.30;;;;;;5016753;28;20030;-58
2021/01/21 03:50:07;;;;;;;2.03;0.75;;;10.40;70.30;;;;;;5016135;28;20530;-59
2021/01/21 03:52:33;;;;;;;2.00;0.73;;;10.30;70.20;;;;;;5016280;28;20030;-58
2021/01/21 03:54:58;;;;;;;3.17;0.65;;;10.30;70.00;;;;;;5016460;28;20025;-65
2021/01/21 03:57:24;;;;;;;3.67;0.65;;;10.30;71.00;;;;;;5014406;28;20088;-59
2021/01/21 03:59:49;;;;;;;3.17;0.98;;;10.30;70.80;;;;;;5015795;28;20104;-59
2021/01/21 04:02:15;;;;;;;1.73;0.77;;;10.30;71.00;;;;;;5016040;28;20026;-59
2021/01/21 04:04:41;;;;;;;3.63;0.85;;;10.40;70.70;;;;;;5014916;28;20026;-65
2021/01/21 04:07:07;;;;;;;3.03;0.80;;;10.30;71.20;;;;;;5003572;28;20088;-59
2021/01/21 04:09:32;;;;;;;2.63;1.23;;;10.30;71.20;;;;;;4998268;28;20034;-60
2021/01/21 04:11:59;;;;;;;2.20;0.98;;;10.40;72.00;;;;;;5015614;28;20022;-59
2021/01/21 04:14:24;;;;;;;3.10;0.68;;;10.30;72.40;;;;;;5015343;28;20095;-59
2021/01/21 04:16:50;;;;;;;2.25;0.43;;;10.40;72.20;;;;;;4998153;28;20456;-60
2021/01/21 04:19:15;;;;;;;1.73;0.73;;;10.40;72.70;;;;;;4998034;28;20026;-61
2021/01/21 04:21:41;;;;;;;2.70;0.98;;;10.40;73.10;;;;;;4997571;28;20028;-60
2021/01/21 04:24:07;;;;;;;1.60;0.63;;;10.50;73.50;;;;;;5015333;28;20117;-60
2021/01/21 04:26:33;;;;;;;1.30;0.60;;;10.50;73.70;;;;;;5014592;28;20073;-59
2021/01/21 04:28:58;;;;;;;2.13;0.50;;;10.50;74.30;;;;;;5014902;28;20022;-58
2021/01/21 04:31:24;;;;;;;1.52;0.70;;;10.50;75.30;;;;;;5014874;28;20025;-59
2021/01/21 04:33:50;;;;;;;1.35;0.50;;;10.50;75.10;;;;;;5015034;28;20033;-59
2021/01/21 04:36:15;;;;;;;2.92;1.42;;;10.50;75.80;;;;;;4997717;28;20078;-59
2021/01/21 04:38:41;;;;;;;4.32;1.45;;;10.50;75.80;;;;;;4997802;28;20037;-64
2021/01/21 04:41:07;;;;;;;3.17;0.90;;;10.50;78.40;;;;;;5017310;28;20491;-61
2021/01/21 04:43:33;;;;;;;1.17;0.60;;;10.50;79.80;;;;;;5014894;28;20478;-60
2021/01/21 04:45:59;;;;;;;1.38;0.63;;;10.50;81.20;;;;;;4998106;28;20030;-59
2021/01/21 04:48:25;;;;;;;2.47;0.73;;;10.60;80.20;;;;;;4997910;28;20026;-59
2021/01/21 04:50:53;;;;;;;3.50;1.00;;;10.50;80.70;;;;;;4998837;28;20068;-71
2021/01/21 04:53:22;;;;;;;2.60;1.00;;;10.50;81.80;;;;;;5016621;28;20045;-67
2021/01/21 04:56:11;;;;;;;3.67;1.35;;;10.60;80.10;;;;;;4999018;28;20098;-60
2021/01/21 04:58:48;;;;;;;2.83;0.77;;;10.60;80.50;;;;;;5013959;28;20076;-60
2021/01/21 05:01:14;;;;;;;8.73;0.85;;;10.50;81.20;;;;;;5015215;28;20025;-59
2021/01/21 05:03:40;;;;;;;3.30;0.80;;;10.50;81.90;;;;;;4997590;28;20175;-71
2021/01/21 05:06:06;;;;;;;4.93;1.20;;;10.70;81.90;;;;;;5017463;28;20053;-62
2021/01/21 05:08:32;;;;;;;4.22;0.98;;;10.60;81.80;;;;;;5015588;28;20037;-59
2021/01/21 05:10:57;;;;;;;3.03;1.00;;;10.70;82.00;;;;;;5015119;28;20026;-63
2021/01/21 05:13:23;;;;;;;3.65;0.75;;;10.70;82.20;;;;;;5014246;28;20468;-63
2021/01/21 05:15:48;;;;;;;3.42;1.02;;;10.70;82.10;;;;;;5014658;28;20044;-60
2021/01/21 05:18:14;;;;;;;7.22;1.13;;;10.70;82.40;;;;;;5014573;28;20032;-60
2021/01/21 05:20:40;;;;;;;2.95;0.80;;;10.70;82.60;;;;;;5014933;28;20291;-60
2021/01/21 05:23:06;;;;;;;8.80;0.85;;;10.70;83.00;;;;;;5015065;28;20092;-60
2021/01/21 05:25:33;;;;;;;4.70;1.02;;;10.70;83.30;;;;;;5014139;28;20037;-59
2021/01/21 05:28:02;;;;;;;1.10;0.80;;;10.70;84.00;;;;;;4997686;28;20030;-59
2021/01/21 05:30:29;;;;;;;2.80;0.75;;;10.70;84.50;;;;;;5014322;28;20122;-59
2021/01/21 05:32:56;;;;;;;2.13;0.75;;;10.60;84.60;;;;;;5015020;28;20479;-60
2021/01/21 05:35:24;;;;;;;3.45;1.63;;;10.60;85.20;;;;;;4996691;28;20065;-63
2021/01/21 05:37:56;;;;;;;2.72;0.90;;;10.60;85.90;;;;;;4997370;28;20041;-60
2021/01/21 05:40:24;;;;;;;7.55;1.08;;;10.50;85.70;;;;;;4996791;28;20040;-67
2021/01/21 05:42:53;;;;;;;4.38;0.80;;;10.60;85.80;;;;;;5015280;28;20026;-67
2021/01/21 05:45:24;;;;;;;5.55;0.90;;;10.60;85.80;;;;;;5016104;28;20456;-60
2021/01/21 05:48:00;;;;;;;5.47;1.70;;;10.50;85.80;;;;;;4998556;28;20041;-67
2021/01/21 05:50:28;;;;;;;3.47;0.80;;;10.50;86.00;;;;;;4997783;28;20060;-61
2021/01/21 05:52:58;;;;;;;4.78;0.95;;;10.50;85.30;;;;;;5015724;28;20029;-59
2021/01/21 05:55:27;;;;;;;5.07;1.42;;;10.50;85.50;;;;;;5015279;28;20033;-62
2021/01/21 05:57:54;;;;;;;1.67;1.23;;;10.50;85.90;;;;;;4998407;28;20033;-62
2021/01/21 06:00:21;;;;;;;5.80;1.05;;;10.50;85.70;;;;;;5016101;28;20062;-61
2021/01/21 06:02:51;;;;;;;3.17;1.23;;;10.50;85.90;;;;;;4998088;28;20365;-64
2021/01/21 06:05:23;;;;;;;1.35;1.10;;;10.40;86.10;;;;;;4996870;28;20055;-60
2021/01/21 06:07:50;;;;;;;6.15;1.38;;;10.40;86.40;;;;;;5013962;28;20138;-60
2021/01/21 06:10:17;;;;;;;2.97;1.17;;;10.30;87.60;;;;;;5014031;28;20030;-60
2021/01/21 06:12:45;;;;;;;3.25;1.05;;;10.30;88.10;;;;;;5014678;28;20311;-60
2021/01/21 06:15:14;;;;;;;4.78;1.13;;;10.30;88.30;;;;;;5015659;28;20034;-60
2021/01/21 06:17:41;;;;;;;4.68;1.02;;;10.30;88.70;;;;;;4997264;28;20240;-59
2021/01/21 06:20:07;;;;;;;3.30;1.50;;;10.30;89.50;;;;;;5015907;28;20040;-62
2021/01/21 06:22:34;;;;;;;8.85;1.38;;;10.30;90.00;;;;;;5015181;28;20033;-62
2021/01/21 06:25:04;;;;;;;2.42;1.45;;;10.20;90.30;;;;;;5014567;28;20022;-64
2021/01/21 06:27:33;;;;;;;1.55;0.95;;;10.30;90.10;;;;;;5015216;28;20121;-63
2021/01/21 06:30:00;;;;;;;5.40;0.90;;;10.40;90.60;;;;;;5015303;28;20032;-62
2021/01/21 06:32:37;;;;;;;4.30;0.98;;;10.30;90.80;;;;;;5014434;28;20030;-62
2021/01/21 06:35:05;;;;;;;3.45;0.80;;;10.30;90.70;;;;;;5015188;28;20026;-65
2021/01/21 06:37:33;;;;;;;2.78;1.10;;;10.30;91.40;;;;;;4996483;28;20069;-60
2021/01/21 06:40:10;;;;;;;3.30;1.00;;;10.30;91.30;;;;;;5014458;28;20026;-61
2021/01/21 06:42:41;;;;;;;3.38;1.33;;;10.30;91.50;;;;;;4996550;28;20034;-60
2021/01/21 06:45:07;;;;;;;1.77;0.85;;;10.30;91.60;;;;;;4979875;28;20030;-61
2021/01/21 06:47:34;;;;;;;6.50;1.60;;;10.30;91.70;;;;;;5012560;28;20039;-62
2021/01/21 06:50:02;;;;;;;1.50;1.00;;;10.30;92.00;;;;;;4995353;28;20030;-64
2021/01/21 06:52:47;;;;;;;3.90;1.13;;;10.30;92.20;;;;;;4997721;28;20105;-61
2021/01/21 06:55:14;;;;;;;4.00;1.30;;;10.30;92.20;;;;;;4999148;28;20053;-59
2021/01/21 06:57:39;;;;;;;3.60;1.10;;;10.30;92.30;;;;;;4998814;28;20029;-61
2021/01/21 07:00:14;;;;;;;1.77;0.90;;;10.30;92.70;;;;;;5016738;28;20034;-61
2021/01/21 07:02:41;;;;;;;3.95;1.38;;;10.30;92.60;;;;;;4998455;28;20072;-64
2021/01/21 07:05:21;;;;;;;2.28;0.77;;;11.20;95.30;;;;;;4999438;28;20037;-71
2021/01/21 07:07:56;;;;;;;5.18;1.13;;;10.70;93.70;;;;;;5006891;28;20041;-61
2021/01/21 07:10:34;;;;;;;2.75;0.80;;;10.40;94.60;;;;;;5020132;28;20490;-60
2021/01/21 07:13:06;;;;;;;8.75;1.67;;;10.40;94.70;;;;;;5002775;28;20344;-63
2021/01/21 07:15:39;;;;;;;3.30;1.00;;;10.30;94.80;;;;;;5032639;28;20487;-65
2021/01/21 07:18:06;;;;;;;3.53;1.05;;;10.30;94.70;;;;;;5018468;28;20117;-61
2021/01/21 07:20:33;;;;;;;6.28;1.65;;;10.30;94.60;;;;;;5035738;28;20129;-65
2021/01/21 07:23:05;;;;;;;1.65;0.88;;;10.30;95.10;;;;;;5036085;28;20426;-61
2021/01/21 07:25:31;;;;;;;2.63;1.17;;;10.30;95.30;;;;;;5035501;28;20080;-65
2021/01/21 07:27:58;;;;;;;3.22;1.00;;;10.40;95.40;;;;;;5035918;28;20044;-62
2021/01/21 07:30:26;;;;;;;5.45;1.58;;;10.40;95.40;;;;;;5036690;28;20172;-60
2021/01/21 07:33:25;;;;;;;5.35;1.10;;;10.40;95.50;;;;;;5036146;28;20152;-63
2021/01/21 07:35:51;;;;;;;4.15;1.00;;;10.40;95.30;;;;;;5012078;28;20037;-60
2021/01/21 07:38:45;;;;;;;4.82;1.08;;;10.50;95.50;;;;;;4998932;28;20093;-61
2021/01/21 07:41:43;;;;;;;2.53;0.85;;;10.50;95.30;;;;;;5016597;28;20510;-71
2021/01/21 07:44:09;;;;;;;5.38;0.90;;;10.50;95.30;;;;;;5022368;28;20037;-61
2021/01/21 07:46:35;;;;;;;6.28;0.98;;;10.50;95.10;;;;;;5001102;28;20440;-62
2021/01/21 07:49:27;;;;;;;4.07;1.10;;;10.50;95.00;;;;;;5018028;28;20017;-62
2021/01/21 07:51:59;;;;;;;3.90;0.77;;;10.50;95.00;;;;;;5017379;28;20117;-61
2021/01/21 07:54:26;;;;;;;2.85;1.02;;;10.60;95.30;;;;;;5017956;28;20036;-63
2021/01/21 07:56:52;;;;;;;1.90;0.60;;;10.60;95.40;;;;;;5034136;28;20021;-60
2021/01/21 07:59:17;;;;;;;5.28;0.80;;;10.60;95.40;;;;;;5035203;28;20040;-60
2021/01/21 08:01:57;;;;;;;2.22;0.70;;;10.70;95.50;;;;;;5016673;28;20029;-61
2021/01/21 08:04:23;;;;;;;1.67;0.70;;;10.70;95.80;;;;;;5009782;28;20061;-63
2021/01/21 08:06:58;;;;;;;3.63;0.68;;;10.70;96.10;;;;;;4997021;28;20046;-60
2021/01/21 08:09:24;;;;;;;5.50;0.80;;;10.70;96.20;;;;;;5011331;28;20033;-62
2021/01/21 08:11:53;;;;;;;2.83;0.82;;;10.80;96.50;;;;;;5010187;28;20095;-60
2021/01/21 08:14:19;;;;;;;1.95;0.88;;;10.80;98.00;;;;;;5016478;28;20053;-62
2021/01/21 08:16:48;;;;;;;3.10;0.77;;;10.70;98.30;;;;;;5034824;28;20045;-63
2021/01/21 08:19:14;;;;;;;3.65;0.85;;;10.60;99.50;;;;;;5036103;28;20022;-60
2021/01/21 08:21:40;;;;;;;2.47;0.60;;;10.60;99.90;;;;;;5034407;28;20034;-63
2021/01/21 08:24:08;;;;;;;1.73;0.50;;;10.60;99.90;;;;;;5017141;28;20026;-60
2021/01/21 08:26:36;;;;;;;2.25;0.63;;;10.60;99.90;;;;;;5016786;28;20035;-63
2021/01/21 08:29:03;;;;;;;1.45;0.40;;;10.50;99.90;;;;;;5035664;28;20021;-61
2021/01/21 08:31:42;;;;;;;1.40;0.57;;;10.60;99.90;;;;;;5018070;28;20029;-59
2021/01/21 08:34:15;;;;;;;0.77;0.50;;;10.50;99.90;;;;;;5029966;28;20029;-61
2021/01/21 08:36:41;;;;;;;3.47;1.00;;;10.40;99.90;;;;;;4996873;28;20113;-61
2021/01/21 08:39:11;;;;;;;1.73;0.73;;;10.30;99.90;;;;;;5015180;28;20116;-60
2021/01/21 08:41:38;;;;;;;0.82;0.43;;;10.40;99.90;;;;;;5014247;28;20045;-60
2021/01/21 08:44:04;;;;;;;1.98;0.70;;;10.30;99.90;;;;;;5014550;28;20061;-61
2021/01/21 08:46:30;;;;;;;2.15;0.80;;;10.30;99.90;;;;;;5015302;28;20034;-61
2021/01/21 08:49:08;;;;;;;1.00;0.60;;;10.30;99.90;;;;;;4980585;28;20029;-61
2021/01/21 08:51:42;;;;;;;1.63;0.70;;;10.30;99.90;;;;;;4997130;28;20026;-68
2021/01/21 08:54:18;;;;;;;4.25;0.63;;;10.40;99.90;;;;;;4997559;28;20033;-60
2021/01/21 08:57:03;;;;;;;3.83;0.80;;;10.40;99.90;;;;;;5021582;28;20033;-61
2021/01/21 08:59:30;;;;;;;2.88;0.50;;;10.30;99.90;;;;;;4988237;28;20034;-62
2021/01/21 09:01:57;;;;;;;0.88;0.57;;;10.30;99.90;;;;;;5007225;28;20030;-60
2021/01/21 09:04:28;;;;;;;1.05;0.52;;;10.30;99.90;;;;;;5021003;28;20468;-60
2021/01/21 09:06:56;;;;;;;2.58;0.40;;;10.30;99.90;;;;;;4999027;28;20281;-59
2021/01/21 09:09:42;;;;;;;3.67;0.55;;;10.40;99.90;;;;;;5009156;28;20137;-60
2021/01/21 09:12:22;;;;;;;0.88;0.65;;;10.40;99.90;;;;;;5021206;28;20042;-60
2021/01/21 09:15:19;;;;;;;1.23;0.50;;;10.40;99.90;;;;;;5020109;28;20372;-59
2021/01/21 09:18:05;;;;;;;1.52;0.55;;;10.50;99.90;;;;;;5004989;28;20038;-62
2021/01/21 09:20:32;;;;;;;1.05;0.65;;;10.40;99.90;;;;;;4996390;28;20322;-64
2021/01/21 09:23:20;;;;;;;1.30;0.57;;;10.40;99.90;;;;;;4997167;28;20046;-60
2021/01/21 09:25:49;;;;;;;2.22;0.40;;;10.50;99.90;;;;;;4996786;28;20057;-60
2021/01/21 09:28:15;;;;;;;2.80;1.05;;;10.50;99.90;;;;;;4999732;28;20041;-61
2021/01/21 09:30:42;;;;;;;1.75;0.50;;;10.60;99.90;;;;;;4999713;28;20028;-60
2021/01/21 09:33:09;;;;;;;2.25;0.50;;;10.60;99.90;;;;;;5020790;28;20109;-62
2021/01/21 09:35:37;;;;;;;2.10;0.52;;;10.70;99.90;;;;;;5025250;28;20032;-65
2021/01/21 09:38:03;;;;;;;1.60;0.65;;;10.70;99.90;;;;;;5020917;28;20133;-61
2021/01/21 09:40:30;;;;;;;2.60;0.50;;;10.70;99.90;;;;;;5006289;28;20049;-60
2021/01/21 09:42:58;;;;;;;4.35;1.00;;;10.70;99.90;;;;;;5002508;28;20112;-65
2021/01/21 09:45:25;;;;;;;1.73;0.70;;;11.70;99.90;;;;;;5008038;28;20724;-68
2021/01/21 09:47:51;;;;;;;1.23;0.40;;;11.40;99.90;;;;;;5007931;28;20059;-61
2021/01/21 09:50:18;;;;;;;1.10;0.50;;;11.10;99.90;;;;;;5007063;28;20030;-72
2021/01/21 09:52:44;;;;;;;3.17;0.70;;;10.90;99.90;;;;;;5017248;28;20045;-62
2021/01/21 09:55:11;;;;;;;2.28;0.52;;;10.70;99.90;;;;;;4995277;28;20483;-60
2021/01/21 09:57:39;;;;;;;1.20;0.60;;;10.60;99.90;;;;;;5013244;28;20041;-60
2021/01/21 10:00:05;;;;;;;1.90;0.63;;;10.50;99.90;;;;;;5005054;28;20357;-63
2021/01/21 10:02:31;;;;;;;1.33;0.80;;;10.50;99.90;;;;;;5012487;28;20037;-61
2021/01/21 10:04:57;;;;;;;3.50;0.80;;;10.40;99.90;;;;;;5011332;28;20116;-61
2021/01/21 10:07:23;;;;;;;3.15;1.00;;;10.30;99.90;;;;;;4995266;28;20062;-61
2021/01/21 10:09:49;;;;;;;5.65;0.90;;;10.30;99.90;;;;;;4995403;28;20411;-61
2021/01/21 10:12:15;;;;;;;4.53;1.50;;;10.20;99.90;;;;;;4995796;28;20022;-60
2021/01/21 10:14:40;;;;;;;4.95;1.75;;;10.20;99.90;;;;;;5013004;28;20034;-61
2021/01/21 10:17:09;;;;;;;4.15;1.00;;;10.10;99.90;;;;;;5002137;28;20025;-62
2021/01/21 10:19:36;;;;;;;3.00;0.90;;;9.90;99.90;;;;;;5013444;28;20475;-66
2021/01/21 10:22:02;;;;;;;3.25;1.52;;;9.90;99.90;;;;;;5012903;28;20030;-62
2021/01/21 10:24:28;;;;;;;1.73;0.68;;;9.70;99.90;;;;;;5030586;28;20032;-62
2021/01/21 10:26:54;;;;;;;4.68;1.27;;;9.60;99.90;;;;;;5009670;28;20115;-61
2021/01/21 10:29:20;;;;;;;3.92;1.42;;;9.70;99.90;;;;;;5031734;28;20053;-62
2021/01/21 10:31:46;;;;;;;2.28;0.68;;;9.70;99.90;;;;;;5013778;28;20033;-62
2021/01/21 10:34:12;;;;;;;6.95;1.52;;;9.70;99.90;;;;;;5033412;28;20033;-63
2021/01/21 10:36:38;;;;;;;5.40;1.55;;;9.60;99.90;;;;;;5010034;28;20502;-61
2021/01/21 10:39:05;;;;;;;3.40;1.25;;;9.50;99.90;;;;;;5020486;28;20034;-61
2021/01/21 10:41:32;;;;;;;4.20;1.63;;;9.60;99.90;;;;;;5012824;28;20058;-62
2021/01/21 10:43:58;;;;;;;1.17;0.65;;;9.50;99.90;;;;;;5016924;28;20053;-60
2021/01/21 10:46:23;;;;;;;1.30;0.40;;;9.50;99.90;;;;;;5011839;28;20062;-60
2021/01/21 10:48:50;;;;;;;4.20;0.65;;;9.40;99.90;;;;;;5009910;28;20077;-62
2021/01/21 10:51:16;;;;;;;2.60;0.50;;;9.40;99.90;;;;;;5025099;28;20104;-61
2021/01/21 10:53:41;;;;;;;0.80;0.40;;;9.30;99.90;;;;;;5031815;28;20101;-62
2021/01/21 10:56:07;;;;;;;6.60;0.60;;;9.30;99.90;;;;;;5015533;28;20089;-62
2021/01/21 10:58:33;;;;;;;4.93;0.40;;;9.20;99.90;;;;;;4998847;28;20030;-61
2021/01/21 11:01:00;;;;;;;2.70;0.40;;;9.20;99.90;;;;;;5031179;28;20029;-61
2021/01/21 11:03:25;;;;;;;4.47;0.32;;;9.10;99.90;;;;;;5014428;28;20032;-61
2021/01/21 11:05:52;;;;;;;3.03;0.40;;;9.10;99.90;;;;;;5018366;28;20115;-63
2021/01/21 11:08:17;;;;;;;1.35;0.38;;;9.20;99.90;;;;;;4994763;28;20158;-65
2021/01/21 11:10:45;;;;;;;3.03;0.30;;;9.10;99.90;;;;;;4994454;28;20448;-61
2021/01/21 11:13:17;;;;;;;2.90;0.77;;;9.20;99.90;;;;;;5012816;28;20407;-66
2021/01/21 11:15:46;;;;;;;4.93;0.65;;;9.20;99.90;;;;;;5011580;28;20391;-61
2021/01/21 11:18:12;;;;;;;0.95;0.30;;;9.20;99.90;;;;;;5012188;28;20376;-61
2021/01/21 11:20:39;;;;;;;2.13;0.30;;;9.30;99.90;;;;;;5011440;28;20030;-66
2021/01/21 11:23:05;;;;;;;1.77;0.70;;;9.30;99.90;;;;;;5011978;28;20026;-60
2021/01/21 11:25:30;;;;;;;8.35;1.25;;;9.10;99.90;;;;;;5012519;28;20472;-60
2021/01/21 11:27:56;;;;;;;5.32;0.70;;;9.00;99.90;;;;;;5011405;28;20026;-60
2021/01/21 11:30:22;;;;;;;2.17;0.47;;;8.90;99.90;;;;;;4994517;28;20120;-60
2021/01/21 11:32:48;;;;;;;1.98;0.50;;;8.90;99.90;;;;;;4993766;28;20034;-61
2021/01/21 11:35:14;;;;;;;2.42;0.32;;;8.90;99.90;;;;;;5011904;28;20034;-62
2021/01/21 11:37:40;;;;;;;1.15;0.40;;;9.00;99.90;;;;;;4993367;28;20038;-68
2021/01/21 11:40:07;;;;;;;3.50;0.45;;;9.00;99.90;;;;;;4997950;28;20386;-60
2021/01/21 11:42:33;;;;;;;0.77;0.35;;;8.90;99.90;;;;;;5015125;28;20041;-61
2021/01/21 11:45:01;;;;;;;3.03;0.22;;;8.80;99.90;;;;;;5014336;28;20445;-63
2021/01/21 11:47:28;;;;;;;1.90;0.38;;;8.80;99.90;;;;;;5015738;28;20030;-61
2021/01/21 11:49:54;;;;;;;4.55;0.52;;;8.80;99.90;;;;;;5014619;28;20463;-61
2021/01/21 11:52:19;;;;;;;2.28;0.35;;;8.80;99.90;;;;;;4998433;28;20064;-61
2021/01/21 11:54:45;;;;;;;0.65;0.20;;;8.80;99.90;;;;;;5015623;28;20108;-63
2021/01/21 11:57:10;;;;;;;1.38;0.25;;;8.80;99.90;;;;;;5015991;28;20111;-62
2021/01/21 11:59:36;;;;;;;1.30;0.28;;;8.90;99.90;;;;;;4997672;28;20033;-61
2021/01/21 12:02:02;;;;;;;1.63;0.47;;;8.80;99.90;;;;;;5015158;28;20053;-62
2021/01/21 12:04:28;;;;;;;3.38;0.38;;;8.90;99.90;;;;;;5015311;28;20025;-61
2021/01/21 12:06:53;;;;;;;0.77;0.30;;;9.00;99.90;;;;;;4996922;28;20141;-60
2021/01/21 12:09:19;;;;;;;2.28;0.40;;;9.00;99.90;;;;;;5006681;28;20022;-68
2021/01/21 12:11:45;;;;;;;2.35;0.60;;;9.00;99.90;;;;;;5016821;28;20026;-61
2021/01/21 12:14:11;;;;;;;0.98;0.20;;;9.00;99.90;;;;;;5009565;28;20052;-63
2021/01/21 12:16:36;;;;;;;15.07;0.63;;;9.10;99.90;;;;;;5033779;28;20435;-70
2021/01/21 12:19:02;;;;;;;2.88;0.40;;;9.20;99.90;;;;;;5021765;28;20087;-64
2021/01/21 12:21:32;;;;;;;1.27;0.30;;;9.10;99.90;;;;;;5014577;28;20156;-63
2021/01/21 12:23:58;;;;;;;0.77;0.43;;;9.10;99.90;;;;;;4999249;28;20030;-66
2021/01/21 12:26:24;;;;;;;2.17;0.47;;;9.20;99.90;;;;;;5036020;28;20049;-63
2021/01/21 12:28:50;;;;;;;2.95;0.35;;;9.20;99.90;;;;;;5035676;28;20032;-62
2021/01/21 12:31:15;;;;;;;1.13;0.20;;;9.10;99.90;;;;;;5018736;28;20049;-64
2021/01/21 12:33:41;;;;;;;1.27;0.20;;;9.20;99.90;;;;;;5018528;28;20026;-68
2021/01/21 12:36:07;;;;;;;3.85;0.32;;;9.20;99.90;;;;;;5016867;28;20056;-63
2021/01/21 12:38:32;;;;;;;0.40;0.30;;;9.30;99.90;;;;;;5007649;28;20049;-61
2021/01/21 12:40:58;;;;;;;1.75;0.20;;;9.30;99.90;;;;;;4997652;28;20037;-61
2021/01/21 12:43:24;;;;;;;2.28;0.40;;;9.20;99.90;;;;;;4997831;28;20033;-64
2021/01/21 12:45:50;;;;;;;2.10;0.20;;;9.20;99.90;;;;;;4996087;28;20158;-62
2021/01/21 12:48:19;;;;;;;1.58;0.20;;;9.30;99.90;;;;;;4996862;28;20030;-60
2021/01/21 12:50:45;;;;;;;1.63;0.22;;;9.30;99.90;;;;;;5013727;28;20108;-67
2021/01/21 12:53:11;;;;;;;1.85;0.30;;;9.30;99.90;;;;;;5014640;28;20029;-61
2021/01/21 12:55:37;;;;;;;2.95;0.30;;;9.10;99.90;;;;;;5014005;28;20034;-62
2021/01/21 12:58:04;;;;;;;1.50;0.38;;;9.10;99.90;;;;;;5027910;28;20039;-63
2021/01/21 13:00:30;;;;;;;3.30;0.13;;;9.10;99.90;;;;;;5033494;28;20026;-65
2021/01/21 13:02:56;;;;;;;6.38;0.13;;;9.20;99.90;;;;;;5004190;28;20053;-62
2021/01/21 13:05:22;;;;;;;2.20;0.60;;;9.20;99.90;;;;;;5014101;28;20538;-61
2021/01/21 13:07:48;;;;;;;2.83;0.82;;;9.20;99.90;;;;;;4996193;28;20054;-64
2021/01/21 13:10:14;;;;;;;6.22;0.60;;;9.20;99.90;;;;;;5014081;28;20081;-62
2021/01/21 13:12:44;;;;;;;1.35;0.20;;;9.20;99.90;;;;;;5014413;28;20036;-61
2021/01/21 13:15:10;;;;;;;1.55;0.20;;;9.20;99.90;;;;;;4996626;28;20037;-61
2021/01/21 13:17:38;;;;;;;2.80;0.55;;;9.20;99.90;;;;;;4997047;28;20034;-62
2021/01/21 13:20:05;;;;;;;1.50;0.68;;;9.30;99.90;;;;;;5013303;28;20105;-61
2021/01/21 13:22:31;;;;;;;1.00;0.30;;;9.30;99.90;;;;;;5014185;28;20041;-63
2021/01/21 13:24:57;;;;;;;1.80;0.30;;;9.30;99.90;;;;;;5012426;28;20084;-65
2021/01/21 13:27:23;;;;;;;3.15;0.30;;;9.40;99.90;;;;;;4997539;28;20053;-63
2021/01/21 13:29:48;;;;;;;2.20;0.30;;;9.30;99.90;;;;;;4996922;28;20502;-63
2021/01/21 13:32:14;;;;;;;3.17;0.73;;;9.30;99.90;;;;;;5015240;28;20387;-62
2021/01/21 13:34:41;;;;;;;1.83;0.28;;;9.20;99.90;;;;;;5013873;28;20022;-62
2021/01/21 13:37:07;;;;;;;3.85;0.30;;;9.20;99.90;;;;;;4996164;28;20026;-62
2021/01/21 13:39:33;;;;;;;0.90;0.20;;;9.40;99.90;;;;;;4996189;28;20088;-61
2021/01/21 13:41:59;;;;;;;1.13;0.30;;;9.40;99.90;;;;;;4995596;28;20030;-62
2021/01/21 13:44:27;;;;;;;3.17;0.30;;;9.30;99.90;;;;;;5013599;28;20029;-61
2021/01/21 13:46:53;;;;;;;3.13;0.75;;;9.40;99.90;;;;;;4995165;28;20061;-62
2021/01/21 13:49:19;;;;;;;2.42;0.45;;;9.30;99.90;;;;;;5014272;28;20057;-62
2021/01/21 13:51:45;;;;;;;2.55;0.40;;;9.40;99.90;;;;;;4996143;28;20033;-67
2021/01/21 13:54:11;;;;;;;2.28;0.30;;;9.40;99.90;;;;;;4996990;28;20030;-62
2021/01/21 13:56:38;;;;;;;8.98;1.08;;;9.40;99.90;;;;;;5015201;28;20045;-61
2021/01/21 13:59:04;;;;;;;5.57;0.57;;;10.00;99.90;;;;;;4996755;28;20038;-64
2021/01/21 14:01:32;;;;;;;2.53;0.60;;;10.80;99.90;;;;;;5014436;28;20169;-69